Details From LOWI - Innsbruck Kranebitten
To TNCM - St Maarten - Princess Juliana Intl
Flight Number -
Tags Decoded
Created
Modified
Stats Distance 4,018 nm / 7,442 km
Max Altitude 0 ft / 0 m
Waypoints 7
Social Downloads 3
Likes 0
Share VATSIM

Download

Looking for another format? Having issues loading an existing format? Contact us
Advertisement - Login to hide

Notes

Decoded

Route

LOWI BOLGI CY400 R2459 LPAZ PJD TNCM

ID Type Via Altitude Latitude Longitude Leg Dist Tot Dist Heading (true) Name
O LOWI APT - 0 ft / 0 m 47.25883˚ 11.33091˚ - 0 nm - -
BOLGI FIX - 0 ft / 0 m 46.66778˚ 5.93833˚ 223 nm 223 nm 263° / 259° -
CY400 FIX - 0 ft / 0 m 45.53381˚ -0.76719˚ 287 nm 511 nm 259° / 254° -
R2459 FIX - 0 ft / 0 m 36.98500˚ -25.17333˚ 1209 nm 1720 nm 254° / 237° -
LPAZ APT - 0 ft / 0 m 36.97389˚ -25.17583˚ 0 nm 1721 nm 190° / 190° -
PJD NDB - 0 ft / 0 m 18.03833˚ -63.11833˚ 2297 nm 4018 nm 251° / 233° ST MAARTEN NDB
O TNCM APT - 0 ft / 0 m 18.03937˚ -63.11961˚ 0 nm 4018 nm 310° / 310° -

Altitude Profile

Advertisement - Login to hide

Weather


0- 5 10 15 20 25 30 35+ Temperature / ° C

Clouds and Precipitation
Forecast for 2017-12-15 00:00 UTC. Updated an hour ago

Ground ~20,000 ft ~40,000 ft Winds

LOWI

Details ICAO LOWI (INN)
Name Innsbruck Kranebitten
Region Austria
Timezone Europe/Vienna (UTC+1.0)
Stats Elevation 1,906 ft / 581 m (AMSL)
Location 47.260226° 11.343967°
Runways 1
Magnetic Variation 3.019° E

METAR

LOWI 150020Z AUTO 25003KT 6000 -RASN FEW002 BKN004 00/00 Q0997

Decode

TAF

TAF TAF LOWI 142315Z 1500/1524 27006KT 6000 SCT005 SCT012 OVC020 TX04/1512Z TNM03/1600Z TEMPO 1500/1505 27015G25KT 0800 SHSN VV004 TEMPO 1505/1507 BKN005 BECMG 1507/1509 9999 FEW030

Decode

Departure Runways

ID Width Length Bearing (true) Bearing (mag) Surface Threshold Offset Overrun Length
08 148 ft / 45 m 6,545 ft / 1,995 m 81.02° 78.00° Asphalt 338 ft / 103 m 0 ft / 0 m
26 148 ft / 45 m 6,545 ft / 1,995 m 261.04° 258.02° Asphalt 0 ft / 0 m 0 ft / 0 m

TNCM

Details ICAO TNCM (SXM)
Name St Maarten - Princess Juliana Intl
Region Caribbean Netherlands, Aruba, Curaçao, Sint Maarten
Timezone Unknown (UTC+0.0)
Stats Elevation 12 ft / 4 m (AMSL)
Location 18.040889° -63.108974°
Runways 1
Magnetic Variation 14.325° W

METAR

TNCM 150000Z 07008KT 040V100 9999 FEW020 26/21 Q1018 A3006 NOSIG

Decode

TAF

TAF TNCM 142320Z 1500/1524 07008KT P6SM SCT020 FM151200 06017KT P6SM VCSH FEW020 SCT040 FM152200 07012KT P6SM FEW022

Decode

Destination Runways

ID Width Length Bearing (true) Bearing (mag) Surface Threshold Offset Overrun Length
10 148 ft / 45 m 7,464 ft / 2,275 m 81.43° 95.76° Asphalt 0 ft / 0 m 151 ft / 46 m
28 148 ft / 45 m 7,464 ft / 2,275 m 261.44° 275.77° Asphalt 397 ft / 121 m 0 ft / 0 m

Popular Alternatives